sensor_id;sensor_type;location;lat;lon;timestamp;pressure;altitude;pressure_sealevel;temperature;humidity
66887;BME280;53798;51.680;5.976;2022-12-18T00:01:29;102796.94;;;-6.97;91.52
66887;BME280;53798;51.680;5.976;2022-12-18T00:03:59;102791.59;;;-7.00;91.47
66887;BME280;53798;51.680;5.976;2022-12-18T00:06:28;102788.91;;;-7.02;91.25
66887;BME280;53798;51.680;5.976;2022-12-18T00:08:57;102789.59;;;-7.05;91.47
66887;BME280;53798;51.680;5.976;2022-12-18T00:11:28;102790.47;;;-7.04;91.65
66887;BME280;53798;51.680;5.976;2022-12-18T00:13:57;102793.16;;;-7.03;91.92
66887;BME280;53798;51.680;5.976;2022-12-18T00:16:28;102797.50;;;-7.02;91.88
66887;BME280;53798;51.680;5.976;2022-12-18T00:18:57;102783.69;;;-7.04;91.77
66887;BME280;53798;51.680;5.976;2022-12-18T00:21:25;102781.00;;;-7.05;91.66
66887;BME280;53798;51.680;5.976;2022-12-18T00:23:54;102781.56;;;-7.09;91.51
66887;BME280;53798;51.680;5.976;2022-12-18T00:26:25;102785.59;;;-7.13;91.77
66887;BME280;53798;51.680;5.976;2022-12-18T00:29:03;102790.72;;;-7.13;91.77
66887;BME280;53798;51.680;5.976;2022-12-18T00:31:33;102789.56;;;-7.17;91.66
66887;BME280;53798;51.680;5.976;2022-12-18T00:34:01;102780.66;;;-7.22;91.45
66887;BME280;53798;51.680;5.976;2022-12-18T00:36:33;102779.13;;;-7.20;91.71
66887;BME280;53798;51.680;5.976;2022-12-18T00:39:02;102773.75;;;-7.23;91.64
66887;BME280;53798;51.680;5.976;2022-12-18T00:41:31;102783.13;;;-7.23;91.31
66887;BME280;53798;51.680;5.976;2022-12-18T00:44:18;102769.16;;;-7.27;91.36
66887;BME280;53798;51.680;5.976;2022-12-18T00:46:47;102762.28;;;-7.28;91.42
66887;BME280;53798;51.680;5.976;2022-12-18T00:49:17;102767.41;;;-7.28;91.44
66887;BME280;53798;51.680;5.976;2022-12-18T00:51:46;102774.97;;;-7.29;91.46
66887;BME280;53798;51.680;5.976;2022-12-18T00:54:14;102776.66;;;-7.30;91.61
66887;BME280;53798;51.680;5.976;2022-12-18T00:56:42;102784.19;;;-7.31;91.32
66887;BME280;53798;51.680;5.976;2022-12-18T00:59:17;102780.66;;;-7.34;91.31
66887;BME280;53798;51.680;5.976;2022-12-18T01:01:45;102770.41;;;-7.34;91.81
66887;BME280;53798;51.680;5.976;2022-12-18T01:04:13;102778.09;;;-7.34;91.38
66887;BME280;53798;51.680;5.976;2022-12-18T01:06:44;102772.19;;;-7.32;91.71
66887;BME280;53798;51.680;5.976;2022-12-18T01:09:12;102773.94;;;-7.31;91.72
66887;BME280;53798;51.680;5.976;2022-12-18T01:11:39;102785.00;;;-7.32;91.71
66887;BME280;53798;51.680;5.976;2022-12-18T01:14:06;102792.56;;;-7.34;91.68
66887;BME280;53798;51.680;5.976;2022-12-18T01:16:35;102789.75;;;-7.37;91.64
66887;BME280;53798;51.680;5.976;2022-12-18T01:19:04;102791.34;;;-7.39;91.69
66887;BME280;53798;51.680;5.976;2022-12-18T01:21:31;102775.06;;;-7.40;91.43
66887;BME280;53798;51.680;5.976;2022-12-18T01:24:03;102785.31;;;-7.40;91.48
66887;BME280;53798;51.680;5.976;2022-12-18T01:26:30;102782.75;;;-7.40;91.82
66887;BME280;53798;51.680;5.976;2022-12-18T01:28:58;102782.66;;;-7.41;91.57
66887;BME280;53798;51.680;5.976;2022-12-18T01:31:30;102774.97;;;-7.41;91.69
66887;BME280;53798;51.680;5.976;2022-12-18T01:34:08;102786.84;;;-7.42;91.52
66887;BME280;53798;51.680;5.976;2022-12-18T01:36:37;102782.31;;;-7.46;91.37
66887;BME280;53798;51.680;5.976;2022-12-18T01:39:10;102776.06;;;-7.50;91.32
66887;BME280;53798;51.680;5.976;2022-12-18T01:41:42;102775.81;;;-7.53;91.44
66887;BME280;53798;51.680;5.976;2022-12-18T01:47:30;102782.94;;;-7.60;91.38
66887;BME280;53798;51.680;5.976;2022-12-18T01:50:00;102774.22;;;-7.62;91.53
66887;BME280;53798;51.680;5.976;2022-12-18T01:52:33;102778.22;;;-7.66;91.50
66887;BME280;53798;51.680;5.976;2022-12-18T01:55:04;102773.69;;;-7.70;91.74
66887;BME280;53798;51.680;5.976;2022-12-18T01:57:32;102773.53;;;-7.72;91.37
66887;BME280;53798;51.680;5.976;2022-12-18T02:00:08;102763.97;;;-7.74;91.36
66887;BME280;53798;51.680;5.976;2022-12-18T02:02:41;102785.47;;;-7.72;91.62
66887;BME280;53798;51.680;5.976;2022-12-18T02:05:16;102780.34;;;-7.72;91.76
66887;BME280;53798;51.680;5.976;2022-12-18T02:08:16;102778.66;;;-7.72;91.25
66887;BME280;53798;51.680;5.976;2022-12-18T02:11:10;102775.31;;;-7.71;91.35
66887;BME280;53798;51.680;5.976;2022-12-18T02:16:41;102783.69;;;-7.73;91.37
66887;BME280;53798;51.680;5.976;2022-12-18T02:25:56;102775.53;;;-7.80;91.46
66887;BME280;53798;51.680;5.976;2022-12-18T02:28:31;102763.16;;;-7.85;91.58
66887;BME280;53798;51.680;5.976;2022-12-18T02:31:09;102767.63;;;-7.83;91.42
66887;BME280;53798;51.680;5.976;2022-12-18T02:33:41;102758.16;;;-7.84;91.65
66887;BME280;53798;51.680;5.976;2022-12-18T02:36:13;102759.69;;;-7.86;91.63
66887;BME280;53798;51.680;5.976;2022-12-18T02:38:45;102762.25;;;-7.86;91.45
66887;BME280;53798;51.680;5.976;2022-12-18T02:41:16;102760.25;;;-7.90;91.11
66887;BME280;53798;51.680;5.976;2022-12-18T02:43:49;102758.47;;;-7.91;91.34
66887;BME280;53798;51.680;5.976;2022-12-18T02:46:32;102754.78;;;-7.94;91.56
66887;BME280;53798;51.680;5.976;2022-12-18T02:49:21;102773.84;;;-7.91;91.53
66887;BME280;53798;51.680;5.976;2022-12-18T03:06:57;102746.88;;;-7.98;91.52
66887;BME280;53798;51.680;5.976;2022-12-18T03:09:36;102739.84;;;-8.00;91.40
66887;BME280;53798;51.680;5.976;2022-12-18T03:12:30;102746.75;;;-7.99;91.31
66887;BME280;53798;51.680;5.976;2022-12-18T03:15:10;102746.97;;;-7.96;91.63
66887;BME280;53798;51.680;5.976;2022-12-18T03:17:56;102755.78;;;-7.92;91.86
66887;BME280;53798;51.680;5.976;2022-12-18T03:20:31;102755.13;;;-7.90;91.90
66887;BME280;53798;51.680;5.976;2022-12-18T03:23:09;102749.00;;;-7.92;91.53
66887;BME280;53798;51.680;5.976;2022-12-18T03:25:44;102755.56;;;-7.96;91.58
66887;BME280;53798;51.680;5.976;2022-12-18T03:28:19;102750.72;;;-8.03;91.50
66887;BME280;53798;51.680;5.976;2022-12-18T03:30:57;102751.94;;;-8.09;91.21
66887;BME280;53798;51.680;5.976;2022-12-18T03:33:38;102749.16;;;-8.13;91.53
66887;BME280;53798;51.680;5.976;2022-12-18T03:36:10;102754.03;;;-8.16;91.33
66887;BME280;53798;51.680;5.976;2022-12-18T03:38:38;102749.56;;;-8.18;91.51
66887;BME280;53798;51.680;5.976;2022-12-18T03:41:19;102745.09;;;-8.21;91.46
66887;BME280;53798;51.680;5.976;2022-12-18T03:44:21;102738.72;;;-8.26;91.22
66887;BME280;53798;51.680;5.976;2022-12-18T03:47:25;102737.50;;;-8.31;91.17
66887;BME280;53798;51.680;5.976;2022-12-18T03:50:14;102742.13;;;-8.37;91.30
66887;BME280;53798;51.680;5.976;2022-12-18T03:53:26;102733.31;;;-8.41;91.12
66887;BME280;53798;51.680;5.976;2022-12-18T03:56:04;102735.53;;;-8.46;91.19
66887;BME280;53798;51.680;5.976;2022-12-18T03:58:38;102733.06;;;-8.44;91.44
66887;BME280;53798;51.680;5.976;2022-12-18T04:01:17;102725.66;;;-8.41;91.57
66887;BME280;53798;51.680;5.976;2022-12-18T04:03:49;102719.00;;;-8.39;91.45
66887;BME280;53798;51.680;5.976;2022-12-18T04:06:19;102714.31;;;-8.33;91.62
66887;BME280;53798;51.680;5.976;2022-12-18T04:08:47;102708.44;;;-8.32;91.24
66887;BME280;53798;51.680;5.976;2022-12-18T04:11:19;102712.25;;;-8.27;91.48
66887;BME280;53798;51.680;5.976;2022-12-18T04:13:48;102707.25;;;-8.25;91.42
66887;BME280;53798;51.680;5.976;2022-12-18T04:16:21;102703.91;;;-8.24;91.51
66887;BME280;53798;51.680;5.976;2022-12-18T04:18:52;102698.13;;;-8.21;91.56
66887;BME280;53798;51.680;5.976;2022-12-18T04:21:20;102694.81;;;-8.20;91.42
66887;BME280;53798;51.680;5.976;2022-12-18T04:23:49;102696.69;;;-8.18;91.69
66887;BME280;53798;51.680;5.976;2022-12-18T04:26:19;102690.28;;;-8.13;91.72
66887;BME280;53798;51.680;5.976;2022-12-18T04:29:04;102699.41;;;-8.04;91.66
66887;BME280;53798;51.680;5.976;2022-12-18T04:31:31;102690.19;;;-8.02;91.76
66887;BME280;53798;51.680;5.976;2022-12-18T04:33:59;102686.44;;;-7.96;91.63
66887;BME280;53798;51.680;5.976;2022-12-18T04:36:27;102690.97;;;-7.91;91.83
66887;BME280;53798;51.680;5.976;2022-12-18T04:38:55;102679.19;;;-7.89;91.85
66887;BME280;53798;51.680;5.976;2022-12-18T04:41:22;102682.75;;;-7.87;91.89
66887;BME280;53798;51.680;5.976;2022-12-18T04:43:51;102677.97;;;-7.83;91.85
66887;BME280;53798;51.680;5.976;2022-12-18T04:46:19;102677.06;;;-7.83;92.14
66887;BME280;53798;51.680;5.976;2022-12-18T04:48:46;102684.88;;;-7.82;92.15
66887;BME280;53798;51.680;5.976;2022-12-18T04:51:13;102680.53;;;-7.83;92.08
66887;BME280;53798;51.680;5.976;2022-12-18T04:53:41;102690.78;;;-7.83;92.00
66887;BME280;53798;51.680;5.976;2022-12-18T04:56:12;102679.63;;;-7.83;92.00
66887;BME280;53798;51.680;5.976;2022-12-18T04:58:42;102687.44;;;-7.82;92.08
66887;BME280;53798;51.680;5.976;2022-12-18T05:01:11;102684.88;;;-7.82;91.90
66887;BME280;53798;51.680;5.976;2022-12-18T05:03:40;102685.13;;;-7.78;92.05
66887;BME280;53798;51.680;5.976;2022-12-18T05:06:08;102689.59;;;-7.76;92.09
66887;BME280;53798;51.680;5.976;2022-12-18T05:08:36;102689.91;;;-7.71;91.96
66887;BME280;53798;51.680;5.976;2022-12-18T05:11:12;102697.84;;;-7.68;92.14
66887;BME280;53798;51.680;5.976;2022-12-18T05:13:43;102704.06;;;-7.65;91.96
66887;BME280;53798;51.680;5.976;2022-12-18T05:16:13;102711.63;;;-7.66;92.39
66887;BME280;53798;51.680;5.976;2022-12-18T05:18:41;102718.44;;;-7.67;91.91
66887;BME280;53798;51.680;5.976;2022-12-18T05:21:09;102725.44;;;-7.64;91.95
66887;BME280;53798;51.680;5.976;2022-12-18T05:23:36;102726.22;;;-7.65;92.18
66887;BME280;53798;51.680;5.976;2022-12-18T05:26:05;102724.56;;;-7.65;91.97
66887;BME280;53798;51.680;5.976;2022-12-18T05:28:36;102736.59;;;-7.63;92.02
66887;BME280;53798;51.680;5.976;2022-12-18T05:31:04;102745.06;;;-7.65;92.01
66887;BME280;53798;51.680;5.976;2022-12-18T05:33:34;102750.28;;;-7.63;92.05
66887;BME280;53798;51.680;5.976;2022-12-18T05:36:05;102750.28;;;-7.63;92.07
66887;BME280;53798;51.680;5.976;2022-12-18T05:38:36;102755.66;;;-7.60;92.38
66887;BME280;53798;51.680;5.976;2022-12-18T05:41:10;102736.03;;;-7.59;91.96
66887;BME280;53798;51.680;5.976;2022-12-18T05:43:40;102728.59;;;-7.56;91.92
66887;BME280;53798;51.680;5.976;2022-12-18T05:46:12;102733.03;;;-7.54;92.23
66887;BME280;53798;51.680;5.976;2022-12-18T05:48:42;102739.06;;;-7.53;92.41
66887;BME280;53798;51.680;5.976;2022-12-18T05:51:13;102737.50;;;-7.51;92.22
66887;BME280;53798;51.680;5.976;2022-12-18T05:53:42;102741.06;;;-7.49;92.30
66887;BME280;53798;51.680;5.976;2022-12-18T05:56:14;102731.06;;;-7.46;91.99
66887;BME280;53798;51.680;5.976;2022-12-18T05:58:44;102719.69;;;-7.38;92.48
66887;BME280;53798;51.680;5.976;2022-12-18T06:01:14;102715.00;;;-7.31;92.61
66887;BME280;53798;51.680;5.976;2022-12-18T06:03:53;102710.22;;;-7.27;92.63
66887;BME280;53798;51.680;5.976;2022-12-18T06:06:26;102704.31;;;-7.26;92.42
66887;BME280;53798;51.680;5.976;2022-12-18T06:08:55;102699.19;;;-7.26;92.42
66887;BME280;53798;51.680;5.976;2022-12-18T06:11:25;102690.03;;;-7.22;92.38
66887;BME280;53798;51.680;5.976;2022-12-18T06:13:54;102691.03;;;-7.20;92.65
66887;BME280;53798;51.680;5.976;2022-12-18T06:16:26;102692.97;;;-7.18;92.62
66887;BME280;53798;51.680;5.976;2022-12-18T06:18:58;102679.56;;;-7.13;92.41
66887;BME280;53798;51.680;5.976;2022-12-18T06:21:27;102680.66;;;-7.10;92.83
66887;BME280;53798;51.680;5.976;2022-12-18T06:23:55;102677.19;;;-6.98;92.87
66887;BME280;53798;51.680;5.976;2022-12-18T06:26:23;102680.09;;;-6.94;93.04
66887;BME280;53798;51.680;5.976;2022-12-18T06:28:56;102667.72;;;-6.88;93.07
66887;BME280;53798;51.680;5.976;2022-12-18T06:31:25;102668.91;;;-6.82;93.11
66887;BME280;53798;51.680;5.976;2022-12-18T06:33:52;102674.47;;;-6.76;93.08
66887;BME280;53798;51.680;5.976;2022-12-18T06:36:21;102677.47;;;-6.70;92.89
66887;BME280;53798;51.680;5.976;2022-12-18T06:38:49;102677.88;;;-6.64;93.06
66887;BME280;53798;51.680;5.976;2022-12-18T06:41:18;102674.84;;;-6.58;92.97
66887;BME280;53798;51.680;5.976;2022-12-18T06:43:47;102669.94;;;-6.55;92.85
66887;BME280;53798;51.680;5.976;2022-12-18T06:46:14;102665.69;;;-6.55;92.59
66887;BME280;53798;51.680;5.976;2022-12-18T06:48:42;102651.97;;;-6.55;92.83
66887;BME280;53798;51.680;5.976;2022-12-18T06:51:09;102652.66;;;-6.58;92.81
66887;BME280;53798;51.680;5.976;2022-12-18T06:53:37;102651.75;;;-6.58;92.68
66887;BME280;53798;51.680;5.976;2022-12-18T06:56:06;102653.63;;;-6.56;92.43
66887;BME280;53798;51.680;5.976;2022-12-18T06:58:38;102645.94;;;-6.56;92.34
66887;BME280;53798;51.680;5.976;2022-12-18T07:01:08;102643.28;;;-6.57;92.45
66887;BME280;53798;51.680;5.976;2022-12-18T07:03:38;102646.75;;;-6.57;92.40
66887;BME280;53798;51.680;5.976;2022-12-18T07:06:15;102649.97;;;-6.59;92.75
66887;BME280;53798;51.680;5.976;2022-12-18T07:08:48;102646.44;;;-6.61;92.39
66887;BME280;53798;51.680;5.976;2022-12-18T07:11:16;102639.72;;;-6.59;92.66
66887;BME280;53798;51.680;5.976;2022-12-18T07:13:45;102647.53;;;-6.58;92.61
66887;BME280;53798;51.680;5.976;2022-12-18T07:16:18;102642.50;;;-6.56;92.37
66887;BME280;53798;51.680;5.976;2022-12-18T07:18:52;102654.44;;;-6.57;92.46
66887;BME280;53798;51.680;5.976;2022-12-18T07:21:23;102645.63;;;-6.60;92.34
66887;BME280;53798;51.680;5.976;2022-12-18T07:23:51;102642.19;;;-6.61;92.35
66887;BME280;53798;51.680;5.976;2022-12-18T07:26:19;102640.31;;;-6.63;92.25
66887;BME280;53798;51.680;5.976;2022-12-18T07:28:47;102645.63;;;-6.60;92.41
66887;BME280;53798;51.680;5.976;2022-12-18T07:31:17;102644.97;;;-6.58;92.20
66887;BME280;53798;51.680;5.976;2022-12-18T07:33:48;102646.16;;;-6.52;92.52
66887;BME280;53798;51.680;5.976;2022-12-18T07:36:16;102645.59;;;-6.48;92.58
66887;BME280;53798;51.680;5.976;2022-12-18T07:38:46;102636.44;;;-6.45;92.55
66887;BME280;53798;51.680;5.976;2022-12-18T07:41:17;102635.25;;;-6.36;92.75
66887;BME280;53798;51.680;5.976;2022-12-18T07:43:46;102632.13;;;-6.32;92.65
66887;BME280;53798;51.680;5.976;2022-12-18T07:46:14;102629.75;;;-6.29;92.64
66887;BME280;53798;51.680;5.976;2022-12-18T07:48:42;102628.50;;;-6.22;92.85
66887;BME280;53798;51.680;5.976;2022-12-18T07:51:16;102621.63;;;-6.10;92.96
66887;BME280;53798;51.680;5.976;2022-12-18T07:53:44;102608.28;;;-6.04;92.89
66887;BME280;53798;51.680;5.976;2022-12-18T07:56:12;102608.78;;;-5.97;92.83
66887;BME280;53798;51.680;5.976;2022-12-18T07:58:58;102605.09;;;-5.87;92.86
66887;BME280;53798;51.680;5.976;2022-12-18T08:01:26;102592.84;;;-5.78;92.60
66887;BME280;53798;51.680;5.976;2022-12-18T08:03:54;102585.56;;;-5.71;92.43
66887;BME280;53798;51.680;5.976;2022-12-18T08:06:21;102580.22;;;-5.61;92.28
66887;BME280;53798;51.680;5.976;2022-12-18T08:08:53;102585.94;;;-5.52;92.12
66887;BME280;53798;51.680;5.976;2022-12-18T08:11:23;102573.69;;;-5.42;92.27
66887;BME280;53798;51.680;5.976;2022-12-18T08:13:52;102593.25;;;-5.31;91.94
66887;BME280;53798;51.680;5.976;2022-12-18T08:16:20;102595.31;;;-5.25;91.86
66887;BME280;53798;51.680;5.976;2022-12-18T08:18:51;102592.53;;;-5.15;91.66
66887;BME280;53798;51.680;5.976;2022-12-18T08:21:22;102594.66;;;-5.08;91.40
66887;BME280;53798;51.680;5.976;2022-12-18T08:23:53;102597.81;;;-4.99;91.26
66887;BME280;53798;51.680;5.976;2022-12-18T08:26:22;102593.94;;;-4.92;91.24
66887;BME280;53798;51.680;5.976;2022-12-18T08:28:51;102598.66;;;-4.85;91.21
66887;BME280;53798;51.680;5.976;2022-12-18T08:31:18;102589.63;;;-4.78;90.74
66887;BME280;53798;51.680;5.976;2022-12-18T08:33:49;102584.16;;;-4.69;90.52
66887;BME280;53798;51.680;5.976;2022-12-18T08:36:18;102579.03;;;-4.54;91.31
66887;BME280;53798;51.680;5.976;2022-12-18T08:38:46;102568.13;;;-4.20;92.30
66887;BME280;53798;51.680;5.976;2022-12-18T08:41:16;102582.63;;;-3.92;92.08
66887;BME280;53798;51.680;5.976;2022-12-18T08:43:44;102575.66;;;-3.78;90.80
66887;BME280;53798;51.680;5.976;2022-12-18T08:46:34;102569.16;;;-3.40;90.42
66887;BME280;53798;51.680;5.976;2022-12-18T08:49:07;102567.50;;;-3.23;88.54
66887;BME280;53798;51.680;5.976;2022-12-18T08:51:36;102566.47;;;-3.10;87.69
66887;BME280;53798;51.680;5.976;2022-12-18T08:54:05;102577.94;;;-2.88;87.34
66887;BME280;53798;51.680;5.976;2022-12-18T08:56:33;102589.81;;;-2.75;86.04
66887;BME280;53798;51.680;5.976;2022-12-18T08:59:01;102578.28;;;-2.66;85.24
66887;BME280;53798;51.680;5.976;2022-12-18T09:01:28;102572.44;;;-2.61;84.48
66887;BME280;53798;51.680;5.976;2022-12-18T09:03:55;102575.81;;;-2.62;84.14
66887;BME280;53798;51.680;5.976;2022-12-18T09:06:22;102579.63;;;-2.56;83.19
66887;BME280;53798;51.680;5.976;2022-12-18T09:08:50;102577.41;;;-2.31;82.71
66887;BME280;53798;51.680;5.976;2022-12-18T09:11:23;102575.22;;;-2.24;81.51
66887;BME280;53798;51.680;5.976;2022-12-18T09:13:52;102560.09;;;-2.16;81.10
66887;BME280;53798;51.680;5.976;2022-12-18T09:16:21;102549.25;;;-2.09;80.61
66887;BME280;53798;51.680;5.976;2022-12-18T09:18:58;102554.28;;;-1.94;79.96
66887;BME280;53798;51.680;5.976;2022-12-18T09:21:35;102553.53;;;-1.91;80.02
66887;BME280;53798;51.680;5.976;2022-12-18T09:24:03;102555.31;;;-1.90;79.35
66887;BME280;53798;51.680;5.976;2022-12-18T09:26:35;102547.88;;;-1.84;79.17
66887;BME280;53798;51.680;5.976;2022-12-18T09:29:03;102549.03;;;-1.95;78.75
66887;BME280;53798;51.680;5.976;2022-12-18T09:31:31;102549.03;;;-2.13;79.20
66887;BME280;53798;51.680;5.976;2022-12-18T09:34:00;102557.06;;;-2.25;79.45
66887;BME280;53798;51.680;5.976;2022-12-18T09:36:27;102559.09;;;-2.36;80.11
66887;BME280;53798;51.680;5.976;2022-12-18T09:38:54;102566.53;;;-2.42;80.58
66887;BME280;53798;51.680;5.976;2022-12-18T09:41:47;102555.22;;;-2.44;80.74
66887;BME280;53798;51.680;5.976;2022-12-18T09:44:30;102565.56;;;-2.44;80.79
66887;BME280;53798;51.680;5.976;2022-12-18T09:47:19;102562.19;;;-2.43;81.03
66887;BME280;53798;51.680;5.976;2022-12-18T09:50:01;102557.25;;;-2.39;80.83
66887;BME280;53798;51.680;5.976;2022-12-18T09:52:42;102535.84;;;-2.36;80.81
66887;BME280;53798;51.680;5.976;2022-12-18T09:55:39;102540.34;;;-2.32;80.79
66887;BME280;53798;51.680;5.976;2022-12-18T10:00:36;102554.47;;;-2.25;80.96
66887;BME280;53798;51.680;5.976;2022-12-18T10:03:12;102551.38;;;-2.18;80.88
66887;BME280;53798;51.680;5.976;2022-12-18T10:17:33;102512.31;;;-1.88;79.23
66887;BME280;53798;51.680;5.976;2022-12-18T10:20:44;102498.88;;;-1.81;78.85
66887;BME280;53798;51.680;5.976;2022-12-18T10:23:17;102494.81;;;-1.76;78.66
66887;BME280;53798;51.680;5.976;2022-12-18T10:26:02;102502.84;;;-1.69;77.83
66887;BME280;53798;51.680;5.976;2022-12-18T10:28:33;102505.66;;;-1.65;78.12
66887;BME280;53798;51.680;5.976;2022-12-18T10:31:06;102512.75;;;-1.61;77.72
66887;BME280;53798;51.680;5.976;2022-12-18T10:33:34;102509.47;;;-1.57;77.91
66887;BME280;53798;51.680;5.976;2022-12-18T10:36:03;102502.97;;;-1.48;78.11
66887;BME280;53798;51.680;5.976;2022-12-18T10:38:31;102500.66;;;-1.42;78.10
66887;BME280;53798;51.680;5.976;2022-12-18T10:41:06;102502.63;;;-1.36;78.34
66887;BME280;53798;51.680;5.976;2022-12-18T10:44:21;102492.56;;;-1.30;77.34
66887;BME280;53798;51.680;5.976;2022-12-18T10:47:04;102508.38;;;-1.24;77.36
66887;BME280;53798;51.680;5.976;2022-12-18T10:49:46;102504.22;;;-1.20;76.83
66887;BME280;53798;51.680;5.976;2022-12-18T10:52:19;102481.13;;;-1.16;77.10
66887;BME280;53798;51.680;5.976;2022-12-18T10:54:54;102467.47;;;-1.12;76.88
66887;BME280;53798;51.680;5.976;2022-12-18T10:57:37;102468.66;;;-1.05;77.06
66887;BME280;53798;51.680;5.976;2022-12-18T11:00:24;102455.84;;;-1.02;76.22
66887;BME280;53798;51.680;5.976;2022-12-18T11:02:55;102450.81;;;-0.99;75.80
66887;BME280;53798;51.680;5.976;2022-12-18T11:05:31;102457.13;;;-0.92;75.41
66887;BME280;53798;51.680;5.976;2022-12-18T11:08:01;102457.34;;;-0.87;75.69
66887;BME280;53798;51.680;5.976;2022-12-18T11:10:35;102451.44;;;-0.83;74.49
66887;BME280;53798;51.680;5.976;2022-12-18T11:13:18;102442.03;;;-0.81;74.01
66887;BME280;53798;51.680;5.976;2022-12-18T11:15:48;102423.09;;;-0.80;73.91
66887;BME280;53798;51.680;5.976;2022-12-18T11:21:06;102425.13;;;-0.73;73.19
66887;BME280;53798;51.680;5.976;2022-12-18T11:23:37;102427.78;;;-0.71;73.17
66887;BME280;53798;51.680;5.976;2022-12-18T11:26:15;102426.22;;;-0.68;73.61
66887;BME280;53798;51.680;5.976;2022-12-18T11:29:08;102422.09;;;-0.63;73.06
66887;BME280;53798;51.680;5.976;2022-12-18T11:31:37;102417.03;;;-0.59;73.45
66887;BME280;53798;51.680;5.976;2022-12-18T11:34:27;102413.72;;;-0.55;73.12
66887;BME280;53798;51.680;5.976;2022-12-18T11:36:58;102413.88;;;-0.52;73.71
66887;BME280;53798;51.680;5.976;2022-12-18T11:39:40;102406.38;;;-0.46;72.90
66887;BME280;53798;51.680;5.976;2022-12-18T11:42:35;102399.59;;;-0.42;72.51
66887;BME280;53798;51.680;5.976;2022-12-18T11:48:03;102407.72;;;-0.33;71.60
66887;BME280;53798;51.680;5.976;2022-12-18T11:50:59;102407.72;;;-0.33;71.64
66887;BME280;53798;51.680;5.976;2022-12-18T11:53:29;102409.50;;;-0.32;71.62
66887;BME280;53798;51.680;5.976;2022-12-18T11:56:36;102412.19;;;-0.29;71.82
66887;BME280;53798;51.680;5.976;2022-12-18T12:02:16;102394.22;;;-0.24;71.96
66887;BME280;53798;51.680;5.976;2022-12-18T12:11:53;102397.00;;;-0.20;70.91
66887;BME280;53798;51.680;5.976;2022-12-18T12:17:07;102366.78;;;-0.19;70.26
66887;BME280;53798;51.680;5.976;2022-12-18T12:26:49;102358.97;;;-0.21;70.19
66887;BME280;53798;51.680;5.976;2022-12-18T12:29:19;102361.63;;;-0.19;70.65
66887;BME280;53798;51.680;5.976;2022-12-18T12:32:22;102353.72;;;-0.22;69.43
66887;BME280;53798;51.680;5.976;2022-12-18T12:38:14;102364.16;;;-0.21;69.53
66887;BME280;53798;51.680;5.976;2022-12-18T12:41:06;102366.63;;;-0.24;69.38
66887;BME280;53798;51.680;5.976;2022-12-18T12:44:01;102356.13;;;-0.27;69.97
66887;BME280;53798;51.680;5.976;2022-12-18T12:46:36;102346.69;;;-0.25;69.39
66887;BME280;53798;51.680;5.976;2022-12-18T12:49:21;102331.97;;;-0.26;69.41
66887;BME280;53798;51.680;5.976;2022-12-18T12:52:10;102336.28;;;-0.26;70.08
66887;BME280;53798;51.680;5.976;2022-12-18T12:54:42;102335.38;;;-0.27;70.09
66887;BME280;53798;51.680;5.976;2022-12-18T12:57:34;102328.69;;;-0.22;69.58
66887;BME280;53798;51.680;5.976;2022-12-18T13:00:15;102313.00;;;-0.25;69.39
66887;BME280;53798;51.680;5.976;2022-12-18T13:06:36;102311.25;;;-0.26;70.04
66887;BME280;53798;51.680;5.976;2022-12-18T13:09:10;102306.91;;;-0.25;70.02
66887;BME280;53798;51.680;5.976;2022-12-18T13:11:40;102306.91;;;-0.25;70.29
66887;BME280;53798;51.680;5.976;2022-12-18T13:14:33;102305.19;;;-0.26;70.28
66887;BME280;53798;51.680;5.976;2022-12-18T13:20:11;102290.53;;;-0.24;70.60
66887;BME280;53798;51.680;5.976;2022-12-18T13:22:48;102291.38;;;-0.25;69.49
66887;BME280;53798;51.680;5.976;2022-12-18T13:25:38;102291.38;;;-0.25;70.20
66887;BME280;53798;51.680;5.976;2022-12-18T13:34:22;102279.25;;;-0.26;69.46
66887;BME280;53798;51.680;5.976;2022-12-18T13:36:56;102271.31;;;-0.31;70.00
66887;BME280;53798;51.680;5.976;2022-12-18T13:39:43;102269.72;;;-0.27;69.90
66887;BME280;53798;51.680;5.976;2022-12-18T13:44:59;102265.28;;;-0.30;69.38
66887;BME280;53798;51.680;5.976;2022-12-18T13:47:32;102257.50;;;-0.30;69.25
66887;BME280;53798;51.680;5.976;2022-12-18T13:50:03;102254.00;;;-0.32;69.26
66887;BME280;53798;51.680;5.976;2022-12-18T13:52:39;102273.97;;;-0.29;69.24
66887;BME280;53798;51.680;5.976;2022-12-18T13:55:17;102264.28;;;-0.34;69.51
66887;BME280;53798;51.680;5.976;2022-12-18T13:57:47;102268.59;;;-0.34;69.65
66887;BME280;53798;51.680;5.976;2022-12-18T14:02:52;102265.97;;;-0.36;70.26
66887;BME280;53798;51.680;5.976;2022-12-18T14:05:30;102263.41;;;-0.34;69.41
66887;BME280;53798;51.680;5.976;2022-12-18T14:08:11;102258.06;;;-0.39;69.55
66887;BME280;53798;51.680;5.976;2022-12-18T14:10:44;102247.69;;;-0.39;69.71
66887;BME280;53798;51.680;5.976;2022-12-18T14:16:03;102247.63;;;-0.40;69.79
66887;BME280;53798;51.680;5.976;2022-12-18T14:18:45;102247.56;;;-0.42;69.93
66887;BME280;53798;51.680;5.976;2022-12-18T14:21:25;102248.41;;;-0.43;70.01
66887;BME280;53798;51.680;5.976;2022-12-18T14:24:18;102248.34;;;-0.44;70.26
66887;BME280;53798;51.680;5.976;2022-12-18T14:26:49;102250.13;;;-0.43;70.12
66887;BME280;53798;51.680;5.976;2022-12-18T14:29:28;102242.38;;;-0.42;69.35
66887;BME280;53798;51.680;5.976;2022-12-18T14:34:51;102230.91;;;-0.49;69.40
66887;BME280;53798;51.680;5.976;2022-12-18T14:37:25;102231.72;;;-0.50;69.60
66887;BME280;53798;51.680;5.976;2022-12-18T14:40:02;102237.81;;;-0.49;69.84
66887;BME280;53798;51.680;5.976;2022-12-18T14:42:37;102234.22;;;-0.53;69.67
66887;BME280;53798;51.680;5.976;2022-12-18T14:48:19;102242.81;;;-0.54;69.61
66887;BME280;53798;51.680;5.976;2022-12-18T14:50:57;102229.75;;;-0.57;69.35
66887;BME280;53798;51.680;5.976;2022-12-18T14:53:33;102231.38;;;-0.59;69.25
66887;BME280;53798;51.680;5.976;2022-12-18T15:01:31;102222.56;;;-0.64;69.38
66887;BME280;53798;51.680;5.976;2022-12-18T15:04:03;102227.66;;;-0.66;69.64
66887;BME280;53798;51.680;5.976;2022-12-18T15:06:35;102220.66;;;-0.68;69.75
66887;BME280;53798;51.680;5.976;2022-12-18T15:09:20;102225.03;;;-0.67;69.94